עמוד ראשי
METAR-TAF:

METAR-TAF

שדות תעופה :

ברגן, נורבגיה

קו רוחב: 60-17N, קו אורך: 005-14E, גובה: 5מטר

תצפית מזג אוויר נוכחית

הדו"ח נערך לפני 18דקות, בשעה 15:50 UTC
רוח 14קשר מכיוון צפון-מערב
טמפרטורת 6 צלסיוס
לחות 45%
לחץ 1007 hPa
ראות 10 קילומטר או יותר
עננים בינוניים בגובה 4500רגל

METAR: ENBR 241550Z 32014KT 9999 BKN045 06/M05 Q1007 NOSIG RMK WIND 1200FT 33019KT

זמן: 18:08 (16:08 UTC)

תחזית

הדו"ח נערך לפני 5 שעות ו 8דקות, בשעה 11:00 UTC
תחזית בתוקף מ 24 ב 12 UTC עד 25 ב 12 UTC
רוח 12קשר מכיוון צפון
ראות 10 קילומטר או יותר
מעט עננים בגובה 2500רגל
עננים פזורים בגובה 4500רגל
זמנית מ -
24 ב 12 UTC עד 24 ב 16 UTC
רוח 18קשר מכיוון צפון עם משבים עד 28קשר
יעשה מ
24 ב 18 UTC עד 24 ב 20 UTC
רוח 5קשר עם כיוונים משתנים

TAF: ENBR 241100Z 2412/2512 35012KT 9999 FEW025 SCT045 TEMPO 2412/2416 35018G28KT BECMG 2418/2420 VRB05KT

תצפיות ותחזיות מזג אוויר לגבי יותר מ- 4,000 שדות תעופה ברחבי העולם. דוחות METAR ו- TAF.

התחנות הזמינות מסומנות בנקודות צהובות ואדומות על גבי המפה.

העבר את העכבר לנקודה הצבעונית על מנת לראות את שם התחנה.

לאחר מכן, לחץ כדי לראות את תוכן ואת תחזיות מזג האוויר.

כדי לשנות את המפה: לחץ על הכפתורים הירוקים עם הפלוס השחור כדי להתקרב; על הכפתור הירוק עם המקף כדי להתרחק; או בחיצים הירוקים למפות סמוכות.


METAR-TAF: